Nixon, Texas
Current Conditions -  °F | °C
As of 9:15 PM on Wednesday 28 Jan 2015 (Local Time) from KT20 Reporting Station
Clear Clear  
Wind Chill: 62°   Ceiling: Unl
Heat Index: 62°   Visibility: 10mi
Dew Point: 54°   Wind: 10mph
Humidity: 75%   Direction: 170°S
Pressure: 30.12"   Gusts: NA
Location:  29.27°N, 97.76°W
Report Text: KT20 290315Z AUTO 17009KT 10SM CLR 17/12 A3012 RMK AO2 T01650121
Loading
Personal Weather Stations






























Interactive Weather Map New forecast layout! Learn more

10-Day Weather Forecast

Advertisements
Track Severe Weather on mobile